createdAt,value
2019-03-08T00:00:16.503Z,45.89
2019-03-08T00:02:42.495Z,45.86
2019-03-08T00:05:08.515Z,45.90
2019-03-08T00:07:34.513Z,45.91
2019-03-08T00:10:00.507Z,45.91
2019-03-08T00:12:26.514Z,45.97
2019-03-08T00:14:52.508Z,45.91
2019-03-08T00:17:18.512Z,45.88
2019-03-08T00:19:44.514Z,45.89
2019-03-08T00:22:10.514Z,45.86
2019-03-08T00:24:36.513Z,45.85
2019-03-08T00:27:02.519Z,45.75
2019-03-08T00:29:28.511Z,45.79
2019-03-08T00:31:54.516Z,45.73
2019-03-08T00:34:20.513Z,45.75
2019-03-08T00:36:46.512Z,45.70
2019-03-08T00:39:12.507Z,45.73
2019-03-08T00:41:38.527Z,45.71
2019-03-08T00:44:04.522Z,45.85
2019-03-08T00:46:30.524Z,45.63
2019-03-08T00:48:56.527Z,45.58
2019-03-08T00:51:22.524Z,45.60
2019-03-08T00:53:48.527Z,45.61
2019-03-08T00:56:14.523Z,45.65
2019-03-08T00:58:40.523Z,45.57
2019-03-08T01:01:06.526Z,45.59
2019-03-08T01:03:32.535Z,45.67
2019-03-08T01:05:58.538Z,45.60
2019-03-08T01:08:24.525Z,45.60
2019-03-08T01:10:50.527Z,45.78
2019-03-08T01:13:16.525Z,45.56
2019-03-08T01:15:42.525Z,45.56
2019-03-08T01:18:08.527Z,45.60
2019-03-08T01:20:34.527Z,45.55
2019-03-08T01:23:00.531Z,45.41
2019-03-08T01:25:26.518Z,45.46
2019-03-08T01:27:52.540Z,45.49
2019-03-08T01:30:18.536Z,45.58
2019-03-08T01:32:44.544Z,45.59
2019-03-08T01:35:10.539Z,45.64
2019-03-08T01:37:36.544Z,45.67
2019-03-08T01:40:02.549Z,45.71
2019-03-08T01:42:28.538Z,45.72
2019-03-08T01:44:54.539Z,45.76
2019-03-08T01:47:20.535Z,45.79
2019-03-08T01:49:46.569Z,45.82
2019-03-08T01:52:12.576Z,45.85
2019-03-08T01:54:38.572Z,45.86
2019-03-08T01:57:04.566Z,45.91
2019-03-08T01:59:30.566Z,45.90
2019-03-08T02:01:56.564Z,45.94
2019-03-08T02:04:22.563Z,45.96
2019-03-08T02:06:48.578Z,45.96
2019-03-08T02:09:14.574Z,45.98
2019-03-08T02:11:40.572Z,45.97
2019-03-08T02:14:06.566Z,45.99
2019-03-08T02:16:32.564Z,46.01
2019-03-08T02:18:58.566Z,46.04
2019-03-08T02:21:24.570Z,46.03
2019-03-08T02:23:50.566Z,46.04
2019-03-08T02:26:16.568Z,46.05
2019-03-08T02:28:42.572Z,46.07
2019-03-08T02:31:08.562Z,46.09
2019-03-08T02:33:34.565Z,46.08
2019-03-08T02:36:00.564Z,46.10
2019-03-08T02:38:26.569Z,46.12
2019-03-08T02:40:52.570Z,46.12
2019-03-08T02:43:18.574Z,46.13
2019-03-08T02:45:44.571Z,46.15
2019-03-08T02:48:10.561Z,46.17
2019-03-08T02:50:36.567Z,46.15
2019-03-08T02:53:02.559Z,46.17
2019-03-08T02:55:28.563Z,46.19
2019-03-08T02:57:54.562Z,46.18
2019-03-08T03:00:20.565Z,46.20
2019-03-08T03:02:46.560Z,46.19
2019-03-08T03:05:12.559Z,46.22
2019-03-08T03:07:38.555Z,46.22
2019-03-08T03:10:04.582Z,46.22
2019-03-08T03:12:30.584Z,46.23
2019-03-08T03:14:56.578Z,46.24
2019-03-08T03:17:22.584Z,46.24
2019-03-08T03:19:48.579Z,46.24
2019-03-08T03:22:14.588Z,46.24
2019-03-08T03:24:40.588Z,46.23
2019-03-08T03:27:06.607Z,46.25
2019-03-08T03:29:32.606Z,46.26
2019-03-08T03:31:58.643Z,46.26
2019-03-08T03:34:24.704Z,46.26
2019-03-08T03:36:50.692Z,46.27
2019-03-08T03:39:16.695Z,46.29
2019-03-08T03:41:42.692Z,46.25
2019-03-08T03:44:08.694Z,46.28
2019-03-08T03:46:34.697Z,46.28
2019-03-08T03:49:00.701Z,46.28
2019-03-08T03:51:26.698Z,46.29
2019-03-08T03:53:52.720Z,46.31
2019-03-08T03:56:18.720Z,46.28
2019-03-08T03:58:44.727Z,46.30
2019-03-08T04:01:10.738Z,46.31
2019-03-08T04:03:36.731Z,46.31
2019-03-08T04:06:02.742Z,46.32
2019-03-08T04:08:28.741Z,46.31
2019-03-08T04:10:54.746Z,46.31
2019-03-08T04:13:20.747Z,46.30
2019-03-08T04:15:46.749Z,46.33
2019-03-08T04:18:12.748Z,46.33
2019-03-08T04:20:38.744Z,46.32
2019-03-08T04:23:04.743Z,46.32
2019-03-08T04:25:30.756Z,46.32
2019-03-08T04:27:56.756Z,46.33
2019-03-08T04:30:22.772Z,46.33
2019-03-08T04:32:48.768Z,46.32
2019-03-08T04:35:14.795Z,46.34
2019-03-08T04:37:40.792Z,46.32
2019-03-08T04:40:06.788Z,46.32
2019-03-08T04:42:32.791Z,46.60
2019-03-08T04:44:58.786Z,46.60
2019-03-08T04:47:24.793Z,46.84
2019-03-08T04:49:50.787Z,46.80
2019-03-08T04:52:16.792Z,47.06
2019-03-08T04:54:42.850Z,47.24
2019-03-08T04:57:08.850Z,47.40
2019-03-08T04:59:34.847Z,47.30
2019-03-08T05:02:00.855Z,47.11
2019-03-08T05:04:26.930Z,47.02
2019-03-08T05:06:52.932Z,46.90
2019-03-08T05:09:18.939Z,46.82
2019-03-08T05:11:44.960Z,46.79
2019-03-08T05:14:10.960Z,46.74
2019-03-08T05:16:36.961Z,46.73
2019-03-08T05:19:02.960Z,46.66
2019-03-08T05:21:30.702Z,46.60
2019-03-08T05:23:54.962Z,46.74
2019-03-08T05:26:20.999Z,46.78
2019-03-08T05:28:47.004Z,46.85
2019-03-08T05:31:13.011Z,47.11
2019-03-08T05:33:39.019Z,47.67
2019-03-08T05:36:05.019Z,48.34
2019-03-08T05:38:31.022Z,48.48
2019-03-08T05:40:57.010Z,48.26
2019-03-08T05:43:23.007Z,48.24
2019-03-08T05:45:48.998Z,48.43
2019-03-08T05:48:15.000Z,48.30
2019-03-08T05:50:40.996Z,48.27
2019-03-08T05:53:07.032Z,48.43
2019-03-08T05:55:33.064Z,48.59
2019-03-08T05:57:59.062Z,48.36
2019-03-08T06:00:31.572Z,48.63
2019-03-08T06:02:51.070Z,48.71
2019-03-08T06:05:17.076Z,48.66
2019-03-08T06:07:43.077Z,48.46
2019-03-08T06:10:09.191Z,48.57
2019-03-08T06:12:35.184Z,48.30
2019-03-08T06:15:03.672Z,48.12
2019-03-08T06:17:29.672Z,48.39
2019-03-08T06:19:55.676Z,48.34
2019-03-08T06:22:21.683Z,48.20
2019-03-08T06:24:47.680Z,48.13
2019-03-08T06:27:13.706Z,48.24
2019-03-08T06:29:39.708Z,48.08
2019-03-08T06:32:05.707Z,48.15
2019-03-08T06:34:32.921Z,47.73
2019-03-08T06:36:57.727Z,48.05
2019-03-08T06:39:23.725Z,48.00
2019-03-08T06:41:49.716Z,48.07
2019-03-08T06:44:15.720Z,48.03
2019-03-08T06:46:41.755Z,48.06
2019-03-08T06:49:07.761Z,47.99
2019-03-08T06:51:33.763Z,47.91
2019-03-08T06:53:59.765Z,47.94
2019-03-08T06:56:25.762Z,47.95
2019-03-08T06:58:51.803Z,47.93
2019-03-08T07:01:17.808Z,47.93
2019-03-08T07:03:43.807Z,47.75
2019-03-08T07:06:09.805Z,47.70
2019-03-08T07:08:35.799Z,47.75
2019-03-08T07:11:01.801Z,47.81
2019-03-08T07:13:28.180Z,47.54
2019-03-08T07:15:53.848Z,47.63
2019-03-08T07:18:19.846Z,47.81
2019-03-08T07:20:45.974Z,47.75
2019-03-08T07:23:11.976Z,47.76
2019-03-08T07:25:37.999Z,47.73
2019-03-08T07:28:04.017Z,47.57
2019-03-08T07:30:30.019Z,47.62
2019-03-08T07:32:56.031Z,47.71
2019-03-08T07:35:22.032Z,47.70
2019-03-08T07:37:48.033Z,47.72
2019-03-08T07:40:15.772Z,47.60
2019-03-08T07:42:40.058Z,47.64
2019-03-08T07:45:06.053Z,47.65
2019-03-08T07:47:32.068Z,47.57
2019-03-08T07:49:58.054Z,47.63
2019-03-08T07:52:24.075Z,47.64
2019-03-08T07:54:53.157Z,47.65
2019-03-08T07:57:16.063Z,47.63
2019-03-08T07:59:42.065Z,47.54
2019-03-08T08:02:08.071Z,47.59
2019-03-08T08:04:34.071Z,47.58
2019-03-08T08:07:00.077Z,47.57
2019-03-08T08:09:26.074Z,47.39
2019-03-08T08:11:52.082Z,47.56
2019-03-08T08:14:18.091Z,47.51
2019-03-08T08:16:44.095Z,47.52
2019-03-08T08:19:10.100Z,47.47
2019-03-08T08:21:36.091Z,47.53
2019-03-08T08:24:02.091Z,47.52
2019-03-08T08:26:28.109Z,47.51
2019-03-08T08:28:55.910Z,47.42
2019-03-08T08:31:20.114Z,47.51
2019-03-08T08:33:46.147Z,47.50
2019-03-08T08:36:12.142Z,47.53
2019-03-08T08:38:38.166Z,47.54
2019-03-08T08:41:04.174Z,47.41
2019-03-08T08:43:30.179Z,47.41
2019-03-08T08:45:56.195Z,47.39
2019-03-08T08:48:22.203Z,47.47
2019-03-08T08:50:48.256Z,47.34
2019-03-08T08:53:14.255Z,47.49
2019-03-08T08:55:40.253Z,47.27
2019-03-08T08:58:06.313Z,47.49
2019-03-08T09:00:32.329Z,47.30
2019-03-08T09:02:58.324Z,47.45
2019-03-08T09:05:24.339Z,47.26
2019-03-08T09:07:50.329Z,47.27
2019-03-08T09:10:16.331Z,47.46
2019-03-08T09:12:42.324Z,47.30
2019-03-08T09:15:08.328Z,47.28
2019-03-08T09:17:34.335Z,47.38
2019-03-08T09:20:00.358Z,47.34
2019-03-08T09:22:26.331Z,47.44
2019-03-08T09:24:52.330Z,47.29
2019-03-08T09:27:18.331Z,47.39
2019-03-08T09:29:44.440Z,47.30
2019-03-08T09:32:10.439Z,47.35
2019-03-08T09:34:36.447Z,47.31
2019-03-08T09:37:02.454Z,47.25
2019-03-08T09:39:28.462Z,47.32
2019-03-08T09:41:54.459Z,47.39
2019-03-08T09:44:20.483Z,47.43
2019-03-08T09:46:46.470Z,47.40
2019-03-08T09:49:12.464Z,47.25
2019-03-08T09:51:38.471Z,47.21
2019-03-08T09:54:04.484Z,47.33
2019-03-08T09:56:30.506Z,47.35
2019-03-08T09:58:56.508Z,47.22
2019-03-08T10:01:22.501Z,47.30
2019-03-08T10:03:48.510Z,47.18
2019-03-08T10:06:14.516Z,47.30
2019-03-08T10:08:40.523Z,47.23
2019-03-08T10:11:06.527Z,47.14
2019-03-08T10:13:32.541Z,47.18
2019-03-08T10:15:58.585Z,47.29
2019-03-08T10:18:24.583Z,47.28
2019-03-08T10:20:50.607Z,47.31
2019-03-08T10:23:19.962Z,47.15
2019-03-08T10:25:42.650Z,47.18
2019-03-08T10:28:08.651Z,47.36
2019-03-08T10:30:34.653Z,47.36
2019-03-08T10:33:00.657Z,47.30
2019-03-08T10:35:26.654Z,47.34
2019-03-08T10:37:52.651Z,47.25
2019-03-08T10:40:18.660Z,47.17
2019-03-08T10:42:44.770Z,47.19
2019-03-08T10:45:10.763Z,47.21
2019-03-08T10:47:36.766Z,47.22
2019-03-08T10:50:02.773Z,47.19
2019-03-08T10:52:28.791Z,47.18
2019-03-08T10:54:54.792Z,47.21
2019-03-08T10:57:20.803Z,47.24
2019-03-08T10:59:46.808Z,47.23
2019-03-08T11:02:12.808Z,47.23
2019-03-08T11:04:38.816Z,47.14
2019-03-08T11:07:04.817Z,47.25
2019-03-08T11:09:30.818Z,47.22
2019-03-08T11:11:56.822Z,47.18
2019-03-08T11:14:22.821Z,47.24
2019-03-08T11:16:48.819Z,47.28
2019-03-08T11:19:14.822Z,47.26
2019-03-08T11:21:40.855Z,47.22
2019-03-08T11:24:06.861Z,47.18
2019-03-08T11:26:32.917Z,47.24
2019-03-08T11:28:58.935Z,47.26
2019-03-08T11:31:24.937Z,47.14
2019-03-08T11:33:50.983Z,47.33
2019-03-08T11:36:16.986Z,47.34
2019-03-08T11:38:42.991Z,47.37
2019-03-08T11:41:08.982Z,47.20
2019-03-08T11:43:34.988Z,47.18
2019-03-08T11:46:00.995Z,47.13
2019-03-08T11:48:27.000Z,47.17
2019-03-08T11:50:53.000Z,47.13
2019-03-08T11:53:18.998Z,47.12
2019-03-08T11:55:45.003Z,47.15
2019-03-08T11:58:11.007Z,47.02
2019-03-08T12:00:37.007Z,47.06
2019-03-08T12:03:03.042Z,47.08
2019-03-08T12:05:29.069Z,46.96
2019-03-08T12:07:55.067Z,47.06
2019-03-08T12:10:21.069Z,47.01
2019-03-08T12:12:47.067Z,46.92
2019-03-08T12:15:14.450Z,46.97
2019-03-08T12:17:39.079Z,47.08
2019-03-08T12:20:05.089Z,47.06
2019-03-08T12:22:31.099Z,47.02
2019-03-08T12:24:57.109Z,47.02
2019-03-08T12:27:23.224Z,46.97
2019-03-08T12:29:49.231Z,46.97
2019-03-08T12:32:15.239Z,47.01
2019-03-08T12:34:41.254Z,47.14
2019-03-08T12:37:07.251Z,47.10
2019-03-08T12:39:33.251Z,47.11
2019-03-08T12:41:59.275Z,47.08
2019-03-08T12:44:25.276Z,47.05
2019-03-08T12:46:51.284Z,47.08
2019-03-08T12:49:17.292Z,47.12
2019-03-08T12:51:43.308Z,47.34
2019-03-08T12:54:09.304Z,47.24
2019-03-08T12:56:35.308Z,47.42
2019-03-08T12:59:01.473Z,47.38
2019-03-08T13:01:27.484Z,47.48
2019-03-08T13:03:53.479Z,47.51
2019-03-08T13:06:19.488Z,47.38
2019-03-08T13:08:45.602Z,47.41
2019-03-08T13:11:11.792Z,47.41
2019-03-08T13:13:37.856Z,47.65
2019-03-08T13:16:03.865Z,47.46
2019-03-08T13:18:29.866Z,47.95
2019-03-08T13:20:55.890Z,48.09
2019-03-08T13:23:21.862Z,47.88
2019-03-08T13:25:47.916Z,47.81
2019-03-08T13:28:13.953Z,48.03
2019-03-08T13:30:39.915Z,47.99
2019-03-08T13:33:05.920Z,48.09
2019-03-08T13:35:31.920Z,47.88
2019-03-08T13:37:57.972Z,47.85
2019-03-08T13:40:23.967Z,47.77
2019-03-08T13:42:49.974Z,48.11
2019-03-08T13:45:15.970Z,48.01
2019-03-08T13:47:41.966Z,48.00
2019-03-08T13:50:07.976Z,48.19
2019-03-08T13:52:33.989Z,48.15
2019-03-08T13:55:00.025Z,48.10
2019-03-08T13:57:26.051Z,48.20
2019-03-08T13:59:52.070Z,48.10
2019-03-08T14:02:18.074Z,48.11
2019-03-08T14:04:44.074Z,47.89
2019-03-08T14:07:10.084Z,47.99
2019-03-08T14:09:36.085Z,48.19
2019-03-08T14:12:02.086Z,48.10
2019-03-08T14:14:28.089Z,47.91
2019-03-08T14:16:54.096Z,48.15
2019-03-08T14:19:20.128Z,48.23
2019-03-08T14:21:46.127Z,47.89
2019-03-08T14:24:12.120Z,48.12
2019-03-08T14:26:38.133Z,47.84
2019-03-08T14:29:04.128Z,48.21
2019-03-08T14:31:30.124Z,48.02
2019-03-08T14:33:56.120Z,47.98
2019-03-08T14:36:22.125Z,47.81
2019-03-08T14:38:48.126Z,47.78
2019-03-08T14:41:14.131Z,48.15
2019-03-08T14:43:40.130Z,48.14
2019-03-08T14:46:06.167Z,48.20
2019-03-08T14:48:32.213Z,48.22
2019-03-08T14:50:58.192Z,48.06
2019-03-08T14:53:24.215Z,47.95
2019-03-08T14:55:50.267Z,47.87
2019-03-08T14:58:16.261Z,48.10
2019-03-08T15:00:42.264Z,48.26
2019-03-08T15:03:08.267Z,48.27
2019-03-08T15:05:34.281Z,48.25
2019-03-08T15:08:00.284Z,48.18
2019-03-08T15:10:26.292Z,48.15
2019-03-08T15:12:53.160Z,48.16
2019-03-08T15:15:18.309Z,48.14
2019-03-08T15:17:44.302Z,48.32
2019-03-08T15:20:15.145Z,48.19
2019-03-08T15:22:38.109Z,48.18
2019-03-08T15:25:02.297Z,48.00
2019-03-08T15:27:28.303Z,48.07
2019-03-08T15:29:54.906Z,47.88
2019-03-08T15:32:20.331Z,48.12
2019-03-08T15:34:46.331Z,47.95
2019-03-08T15:37:12.336Z,47.90
2019-03-08T15:39:38.503Z,48.07
2019-03-08T15:42:04.500Z,48.04
2019-03-08T15:44:30.504Z,47.96
2019-03-08T15:46:59.183Z,47.98
2019-03-08T15:49:22.524Z,47.90
2019-03-08T15:51:48.522Z,47.90
2019-03-08T15:54:14.527Z,47.89
2019-03-08T15:56:40.523Z,47.93
2019-03-08T15:59:06.572Z,47.89
2019-03-08T16:01:32.571Z,47.84
2019-03-08T16:03:58.576Z,47.79
2019-03-08T16:06:24.571Z,47.81
2019-03-08T16:08:50.583Z,47.78
2019-03-08T16:11:16.809Z,47.74
2019-03-08T16:13:42.819Z,47.63
2019-03-08T16:16:08.816Z,47.67
2019-03-08T16:18:34.808Z,47.61
2019-03-08T16:21:00.833Z,47.57
2019-03-08T16:23:26.865Z,47.53
2019-03-08T16:25:52.867Z,47.47
2019-03-08T16:28:18.880Z,47.43
2019-03-08T16:30:47.600Z,47.34
2019-03-08T16:33:10.913Z,47.34
2019-03-08T16:35:36.919Z,47.31
2019-03-08T16:38:02.919Z,47.37
2019-03-08T16:40:28.941Z,47.43
2019-03-08T16:42:54.977Z,47.45
2019-03-08T16:45:21.186Z,47.52
2019-03-08T16:47:47.186Z,47.58
2019-03-08T16:50:13.214Z,47.61
2019-03-08T16:52:39.218Z,47.63
2019-03-08T16:55:05.216Z,47.72
2019-03-08T16:57:31.228Z,47.88
2019-03-08T16:59:57.290Z,47.84
2019-03-08T17:02:23.298Z,48.02
2019-03-08T17:04:49.300Z,48.03
2019-03-08T17:07:15.315Z,47.98
2019-03-08T17:09:42.768Z,47.96
2019-03-08T17:12:07.353Z,47.96
2019-03-08T17:14:33.355Z,47.86
2019-03-08T17:16:59.365Z,47.88
2019-03-08T17:19:25.361Z,47.75
2019-03-08T17:21:54.140Z,47.88
2019-03-08T17:24:20.158Z,48.35
2019-03-08T17:26:46.171Z,48.37
2019-03-08T17:29:12.177Z,48.54
2019-03-08T17:31:38.176Z,48.59
2019-03-08T17:34:04.182Z,48.91
2019-03-08T17:36:30.384Z,49.13
2019-03-08T17:38:56.394Z,49.25
2019-03-08T17:41:22.698Z,49.39
2019-03-08T17:43:48.393Z,49.22
2019-03-08T17:46:14.396Z,49.38
2019-03-08T17:48:40.395Z,48.80
2019-03-08T17:51:06.395Z,49.30
2019-03-08T17:53:32.401Z,48.74
2019-03-08T17:55:58.397Z,48.42
2019-03-08T17:58:24.399Z,47.92
2019-03-08T18:00:50.400Z,47.81
2019-03-08T18:03:16.391Z,47.81
2019-03-08T18:05:42.415Z,47.69
2019-03-08T18:08:08.411Z,47.57
2019-03-08T18:10:34.441Z,47.45
2019-03-08T18:13:00.446Z,47.34
2019-03-08T18:15:26.450Z,47.29
2019-03-08T18:17:52.450Z,47.17
2019-03-08T18:20:18.465Z,47.07
2019-03-08T18:22:44.475Z,46.98
2019-03-08T18:25:10.478Z,46.82
2019-03-08T18:27:36.492Z,46.71
2019-03-08T18:30:02.488Z,46.78
2019-03-08T18:32:28.494Z,46.95
2019-03-08T18:34:54.503Z,46.98
2019-03-08T18:37:20.520Z,47.03
2019-03-08T18:39:46.522Z,47.23
2019-03-08T18:42:12.527Z,47.07
2019-03-08T18:44:38.533Z,46.95
2019-03-08T18:47:04.567Z,47.53
2019-03-08T18:49:30.556Z,47.40
2019-03-08T18:51:56.548Z,47.32
2019-03-08T18:54:22.552Z,47.32
2019-03-08T18:56:48.543Z,47.20
2019-03-08T18:59:14.544Z,47.53
2019-03-08T19:01:40.545Z,47.78
2019-03-08T19:04:06.588Z,47.95
2019-03-08T19:06:32.583Z,48.00
2019-03-08T19:08:58.582Z,48.01
2019-03-08T19:11:24.573Z,48.04
2019-03-08T19:13:50.579Z,47.96
2019-03-08T19:16:16.587Z,47.86
2019-03-08T19:18:42.583Z,47.89
2019-03-08T19:21:08.591Z,48.05
2019-03-08T19:23:34.590Z,48.05
2019-03-08T19:26:00.604Z,48.26
2019-03-08T19:28:26.624Z,47.93
2019-03-08T19:30:52.622Z,48.27
2019-03-08T19:33:18.616Z,48.29
2019-03-08T19:35:44.614Z,48.23
2019-03-08T19:38:10.612Z,47.90
2019-03-08T19:40:36.615Z,48.13
2019-03-08T19:43:02.607Z,47.96
2019-03-08T19:45:28.602Z,47.84
2019-03-08T19:47:54.606Z,47.76
2019-03-08T19:50:20.608Z,48.01
2019-03-08T19:52:46.609Z,48.16
2019-03-08T19:55:12.618Z,48.20
2019-03-08T19:57:38.625Z,48.23
2019-03-08T20:00:04.669Z,48.23
2019-03-08T20:02:30.651Z,47.99
2019-03-08T20:04:56.652Z,48.37
2019-03-08T20:07:22.647Z,48.07
2019-03-08T20:09:48.735Z,48.02
2019-03-08T20:12:14.726Z,48.32
2019-03-08T20:14:40.727Z,48.34
2019-03-08T20:17:06.731Z,48.21
2019-03-08T20:19:32.724Z,48.33
2019-03-08T20:21:58.744Z,48.41
2019-03-08T20:24:25.151Z,48.38
2019-03-08T20:26:51.161Z,48.44
2019-03-08T20:29:17.154Z,48.39
2019-03-08T20:31:43.152Z,48.57
2019-03-08T20:34:09.161Z,48.69
2019-03-08T20:36:35.185Z,48.50
2019-03-08T20:39:01.166Z,48.51
2019-03-08T20:41:27.166Z,48.70
2019-03-08T20:43:53.171Z,48.63
2019-03-08T20:46:19.176Z,48.65
2019-03-08T20:48:45.244Z,48.63
2019-03-08T20:51:11.244Z,48.71
2019-03-08T20:53:37.273Z,48.68
2019-03-08T20:56:03.265Z,48.73
2019-03-08T20:58:29.270Z,48.65
2019-03-08T21:00:55.294Z,48.54
2019-03-08T21:03:22.261Z,48.60
2019-03-08T21:05:48.458Z,48.53
2019-03-08T21:08:14.545Z,48.55
2019-03-08T21:10:40.554Z,48.70
2019-03-08T21:13:06.551Z,48.68
2019-03-08T21:15:32.577Z,48.63
2019-03-08T21:17:58.652Z,48.56
2019-03-08T21:20:24.648Z,48.55
2019-03-08T21:22:50.648Z,48.67
2019-03-08T21:25:16.643Z,48.60
2019-03-08T21:27:42.643Z,48.46
2019-03-08T21:30:08.644Z,48.65
2019-03-08T21:32:34.638Z,48.62
2019-03-08T21:35:00.717Z,48.61
2019-03-08T21:37:26.716Z,48.68
2019-03-08T21:39:52.714Z,48.63
2019-03-08T21:42:18.714Z,48.67
2019-03-08T21:44:44.723Z,48.65
2019-03-08T21:47:10.755Z,48.64
2019-03-08T21:49:36.753Z,48.65
2019-03-08T21:52:02.750Z,48.62
2019-03-08T21:54:28.755Z,48.67
2019-03-08T21:56:54.828Z,48.63
2019-03-08T21:59:20.825Z,48.67
2019-03-08T22:01:46.818Z,48.64
2019-03-08T22:04:12.856Z,48.65
2019-03-08T22:06:38.864Z,48.71
2019-03-08T22:09:04.855Z,48.38
2019-03-08T22:11:30.857Z,48.67
2019-03-08T22:13:56.854Z,48.61
2019-03-08T22:16:22.852Z,48.44
2019-03-08T22:18:48.951Z,48.62
2019-03-08T22:21:14.954Z,48.41
2019-03-08T22:23:40.949Z,48.54
2019-03-08T22:26:06.952Z,48.44
2019-03-08T22:28:32.947Z,48.35
2019-03-08T22:30:58.959Z,48.24
2019-03-08T22:33:24.963Z,48.21
2019-03-08T22:35:50.983Z,48.12
2019-03-08T22:38:16.993Z,48.11
2019-03-08T22:40:42.985Z,48.03
2019-03-08T22:43:08.983Z,48.02
2019-03-08T22:45:34.978Z,48.01
2019-03-08T22:48:01.021Z,47.99
2019-03-08T22:50:27.024Z,47.98
2019-03-08T22:52:53.030Z,47.93
2019-03-08T22:55:19.043Z,47.97
2019-03-08T22:57:45.041Z,47.92
2019-03-08T23:00:11.039Z,47.91
2019-03-08T23:02:37.041Z,47.92
2019-03-08T23:05:03.049Z,47.87
2019-03-08T23:07:29.039Z,47.88
2019-03-08T23:09:55.039Z,47.83
2019-03-08T23:12:21.040Z,47.80
2019-03-08T23:14:47.051Z,47.79
2019-03-08T23:17:13.048Z,47.78
2019-03-08T23:19:39.050Z,47.78
2019-03-08T23:22:05.055Z,47.75
2019-03-08T23:24:31.047Z,47.75
2019-03-08T23:26:57.078Z,47.73
2019-03-08T23:29:23.073Z,47.71
2019-03-08T23:31:49.077Z,47.71
2019-03-08T23:34:15.076Z,47.70
2019-03-08T23:36:41.077Z,47.69
2019-03-08T23:39:07.078Z,47.68
2019-03-08T23:41:33.074Z,47.68
2019-03-08T23:43:59.073Z,47.66
2019-03-08T23:46:25.067Z,47.65
2019-03-08T23:48:51.103Z,47.66
2019-03-08T23:51:17.125Z,47.62
2019-03-08T23:53:43.118Z,47.62
2019-03-08T23:56:09.166Z,47.61
2019-03-08T23:58:35.114Z,47.60
